El Paso, TX (88520)

4:15 AM MDT on September 30, 2014 (GMT -0600)
SAN CLEMENTE ESTATES | Change Station
CLOSE
Current Station
Personal Weather Station
Location: EL PASO, TX
Elevation: 4606 ft
Nearby Weather Stations

Elev 4606 ft 31.82 °N, 106.50 °W | Updated 1 second ago

Partly Cloudy
Partly Cloudy
68.0 °F
Feels Like 68.0 °F
N
0.0
Wind Variable Wind from NW
Gusts 0.0 mph

Today
High -- | Low -- °F
--% Chance of Precip.
Yesterday
High -- | Low -- °F
Precip. -- in
6:58 AM 6:51 PM
Waxing Crescent, 35% visible
Pressure 29.70 in
Visibility 10.0 miles
Clouds Few 25000 ft
Dew Point 55 °F
Humidity 64%
Rainfall 0.00 in
Snow Depth Not available.
UV 0.0 out of 12
Pollen 7.00 out of 12
Air Quality Not available.
Flu Activity Not available.
METAR KELP 300951Z 24008KT 10SM FEW250 22/13 A2993 RMK AO2 SLP058 T02220128

More Conditions Fewer Conditions

Pressure 29.70 in
Visibility 10.0 miles
Clouds Few 25000 ft
Dew Point 55 °F
Humidity 64%
Rainfall 0.00 in
Snow Depth Not available.
UV 0.0 out of 12
Pollen 7.00 out of 12
Air Quality Not available.
Flu Activity Not available.
METAR KELP 300951Z 24008KT 10SM FEW250 22/13 A2993 RMK AO2 SLP058 T02220128

More Conditions Fewer Conditions

10-Day Weather Forecast

Almanac

Astronomy

Sep. 30, 2014 Rise Set
Actual Time 6:58 AM MDT 6:51 PM MDT
Civil Twilight 6:34 AM MDT 7:16 PM MDT
Nautical Twilight 6:06 AM MDT 7:44 PM MDT
Astronomical Twilight 5:37 AM MDT 8:12 PM MDT
Moon 12:53 PM MDT 11:40 PM MDT
Length of Visible Light 12h 41m
Length of Day
11h 52m
Tomorrow will be 1m 55s shorter.
Waxing Crescent, 35% of the Moon is Illuminated
Today
Waxing Crescent
Oct 1
First Quarter
Oct 8
Full
Oct 15
Last Quarter
Oct 23
New

Today's Extremes

State Highs State Lows

Community

WunderPhotos

Upload Photos

1,757,608 photos uploaded!

Nearby

Snow Depth

Station Depth Elevation
No new snow has been reported.

Earthquake Activity

City Distance Mag. Time & Date
No recent earthquake activity has been reported nearby.
Minimum magnitude displayed is 2.5.

Coastal Water Temperatures

Place Temperature
No Stations Reporting

Nearby Weather Stations